Time;durP1;ratioP1;P1;durP2;ratioP2;P2;SDS_P1;SDS_P2;PMS_P1;PMS_P2;Temp;Humidity;BMP_temperature;BMP_pressure;BME280_temperature;BME280_humidity;BME280_pressure;Samples;Min_cycle;Max_cycle;Signal;HPM_P1;HPM_P2
2022/03/09 00:00:20;;;;;;;0.85;0.65;;;;;;;;;;5097886;28;20031;-56
2022/03/09 00:02:45;;;;;;;1.17;0.80;;;;;;;;;;5100557;28;20024;-53
2022/03/09 00:05:10;;;;;;;1.77;0.63;;;;;;;;;;5112023;28;20020;-56
2022/03/09 00:07:36;;;;;;;1.67;0.70;;;;;;;;;;5109035;28;20023;-56
2022/03/09 00:10:02;;;;;;;1.05;0.90;;;;;;;;;;5113808;28;20088;-52
2022/03/09 00:12:27;;;;;;;1.55;0.80;;;;;;;;;;5108552;27;20530;-55
2022/03/09 00:14:52;;;;;;;1.35;0.93;;;;;;;;;;5114698;28;20036;-57
2022/03/09 00:17:17;;;;;;;1.00;0.90;;;;;;;;;;5100099;28;20028;-54
2022/03/09 00:19:43;;;;;;;1.23;0.82;;;;;;;;;;5094859;28;20032;-57
2022/03/09 00:22:08;;;;;;;1.60;0.57;;;;;;;;;;5097309;28;20046;-54
2022/03/09 00:24:33;;;;;;;0.95;0.80;;;;;;;;;;5106877;28;20459;-56
2022/03/09 00:26:59;;;;;;;1.10;0.90;;;;;;;;;;5103802;28;20020;-55
2022/03/09 00:29:25;;;;;;;0.90;0.63;;;;;;;;;;5105843;28;20455;-55
2022/03/09 00:31:50;;;;;;;0.70;0.40;;;;;;;;;;5112552;28;20028;-54
2022/03/09 00:34:15;;;;;;;1.73;0.70;;;;;;;;;;5112931;28;20096;-56
2022/03/09 00:36:40;;;;;;;0.82;0.63;;;;;;;;;;5097929;28;20114;-55
2022/03/09 00:39:05;;;;;;;1.13;0.80;;;;;;;;;;5114045;28;20077;-55
2022/03/09 00:41:31;;;;;;;1.58;0.60;;;;;;;;;;5100749;28;20027;-55
2022/03/09 00:43:56;;;;;;;0.93;0.65;;;;;;;;;;5113806;28;20023;-56
2022/03/09 00:46:21;;;;;;;1.10;0.63;;;;;;;;;;5112543;28;20023;-54
2022/03/09 00:48:46;;;;;;;1.52;0.60;;;;;;;;;;5112497;28;20078;-55
2022/03/09 00:51:12;;;;;;;0.77;0.60;;;;;;;;;;5101821;28;20063;-56
2022/03/09 00:53:38;;;;;;;0.95;0.57;;;;;;;;;;5105431;28;20070;-55
2022/03/09 00:56:03;;;;;;;0.88;0.50;;;;;;;;;;5110606;28;20043;-54
2022/03/09 00:58:28;;;;;;;0.85;0.63;;;;;;;;;;5113632;28;20062;-55
2022/03/09 01:00:53;;;;;;;1.00;0.50;;;;;;;;;;5112709;28;20134;-54
2022/03/09 01:03:19;;;;;;;2.08;0.63;;;;;;;;;;5107894;28;20434;-57
2022/03/09 01:05:44;;;;;;;1.42;0.82;;;;;;;;;;5113770;28;20038;-56
2022/03/09 01:08:09;;;;;;;0.85;0.65;;;;;;;;;;5098873;28;20012;-54
2022/03/09 01:10:34;;;;;;;1.42;1.05;;;;;;;;;;5093762;28;20415;-55
2022/03/09 01:13:00;;;;;;;1.27;0.57;;;;;;;;;;5102815;28;20027;-51
2022/03/09 01:15:25;;;;;;;0.80;0.50;;;;;;;;;;5093493;28;20020;-56
2022/03/09 01:17:50;;;;;;;1.15;0.65;;;;;;;;;;5093982;28;20121;-55
2022/03/09 01:20:15;;;;;;;0.80;0.60;;;;;;;;;;5104494;28;20024;-55
2022/03/09 01:22:41;;;;;;;1.02;0.55;;;;;;;;;;5112585;28;20342;-56
2022/03/09 01:25:06;;;;;;;1.20;0.60;;;;;;;;;;5109593;28;20055;-55
2022/03/09 01:27:32;;;;;;;0.75;0.57;;;;;;;;;;5104062;28;20077;-53
2022/03/09 01:29:57;;;;;;;1.55;0.60;;;;;;;;;;5105525;28;20019;-53
2022/03/09 01:32:22;;;;;;;0.73;0.70;;;;;;;;;;5103614;28;20090;-55
2022/03/09 01:34:48;;;;;;;1.80;0.80;;;;;;;;;;5112579;28;20398;-56
2022/03/09 01:37:13;;;;;;;0.82;0.70;;;;;;;;;;5112732;28;20032;-55
2022/03/09 01:39:38;;;;;;;0.70;0.60;;;;;;;;;;5113639;28;20036;-56
2022/03/09 01:42:04;;;;;;;0.93;0.77;;;;;;;;;;5106410;28;20625;-56
2022/03/09 01:44:29;;;;;;;0.80;0.73;;;;;;;;;;5102065;28;20160;-56
2022/03/09 01:46:54;;;;;;;1.25;0.90;;;;;;;;;;5112584;28;20019;-53
2022/03/09 01:49:20;;;;;;;1.65;0.63;;;;;;;;;;5113395;28;20051;-55
2022/03/09 01:51:46;;;;;;;1.25;0.88;;;;;;;;;;5093727;28;20008;-54
2022/03/09 01:54:12;;;;;;;1.38;1.10;;;;;;;;;;5109866;28;20015;-56
2022/03/09 01:56:37;;;;;;;1.25;0.90;;;;;;;;;;5107823;28;20517;-57
2022/03/09 01:59:03;;;;;;;0.98;0.73;;;;;;;;;;5101450;28;20019;-55
2022/03/09 02:01:29;;;;;;;2.25;0.98;;;;;;;;;;5109219;28;20528;-55
2022/03/09 02:03:56;;;;;;;0.70;0.60;;;;;;;;;;5106135;28;20024;-56
2022/03/09 02:06:21;;;;;;;1.23;0.63;;;;;;;;;;5098033;28;20476;-57
2022/03/09 02:11:31;;;;;;;0.90;0.60;;;;;;;;;;5106606;28;20027;-56
2022/03/09 02:13:56;;;;;;;0.70;0.60;;;;;;;;;;5110402;28;20027;-56
2022/03/09 02:16:22;;;;;;;2.13;0.93;;;;;;;;;;5098173;28;20028;-52
2022/03/09 02:18:47;;;;;;;1.58;0.80;;;;;;;;;;5094262;28;20019;-55
2022/03/09 02:21:15;;;;;;;1.00;0.80;;;;;;;;;;5095830;28;20032;-53
2022/03/09 02:23:41;;;;;;;0.90;0.70;;;;;;;;;;5099539;28;20020;-54
2022/03/09 02:26:06;;;;;;;1.05;0.80;;;;;;;;;;5108530;28;20022;-54
2022/03/09 02:28:36;;;;;;;0.77;0.47;;;;;;;;;;5104278;28;20083;-56
2022/03/09 02:31:01;;;;;;;1.30;1.00;;;;;;;;;;5112783;28;20030;-54
2022/03/09 02:33:26;;;;;;;1.52;0.85;;;;;;;;;;5109439;28;20028;-56
2022/03/09 02:35:51;;;;;;;1.02;0.80;;;;;;;;;;5111998;28;20054;-56
2022/03/09 02:38:17;;;;;;;0.98;0.80;;;;;;;;;;5110560;28;20068;-56
2022/03/09 02:40:42;;;;;;;1.75;0.80;;;;;;;;;;5093469;28;20392;-54
2022/03/09 02:43:07;;;;;;;1.45;0.82;;;;;;;;;;5093558;28;20499;-56
2022/03/09 02:45:32;;;;;;;1.20;0.70;;;;;;;;;;5096010;28;20172;-55
2022/03/09 02:47:57;;;;;;;1.30;0.98;;;;;;;;;;5103002;28;20043;-54
2022/03/09 02:50:22;;;;;;;1.63;0.98;;;;;;;;;;5091891;28;20039;-56
2022/03/09 02:52:48;;;;;;;0.55;0.52;;;;;;;;;;5102266;28;20047;-55
2022/03/09 02:55:13;;;;;;;1.52;0.80;;;;;;;;;;5105570;28;20044;-54
2022/03/09 02:57:39;;;;;;;1.02;0.90;;;;;;;;;;5110681;28;20023;-54
2022/03/09 03:00:07;;;;;;;0.93;0.73;;;;;;;;;;5109511;28;20403;-55
2022/03/09 03:02:32;;;;;;;0.93;0.93;;;;;;;;;;5112278;28;20061;-55
2022/03/09 03:04:58;;;;;;;1.73;1.00;;;;;;;;;;5105277;28;20028;-54
2022/03/09 03:07:23;;;;;;;0.77;0.60;;;;;;;;;;5105833;28;20051;-56
2022/03/09 03:09:49;;;;;;;0.98;0.68;;;;;;;;;;5103597;28;20034;-52
2022/03/09 03:12:14;;;;;;;2.15;0.75;;;;;;;;;;5112200;28;20027;-53
2022/03/09 03:14:39;;;;;;;0.80;0.77;;;;;;;;;;5111583;28;20032;-49
2022/03/09 03:17:04;;;;;;;0.95;0.80;;;;;;;;;;5100375;28;20074;-54
2022/03/09 03:19:29;;;;;;;1.67;1.02;;;;;;;;;;5104335;28;20488;-56
2022/03/09 03:21:55;;;;;;;1.60;0.88;;;;;;;;;;5111499;28;20373;-52
2022/03/09 03:24:20;;;;;;;1.30;1.13;;;;;;;;;;5099247;28;20482;-56
2022/03/09 03:26:45;;;;;;;1.35;1.15;;;;;;;;;;5110505;28;20023;-55
2022/03/09 03:29:10;;;;;;;1.55;1.40;;;;;;;;;;5104163;28;20046;-55
2022/03/09 03:31:35;;;;;;;1.77;0.85;;;;;;;;;;5099603;28;20032;-54
2022/03/09 03:34:01;;;;;;;2.47;0.90;;;;;;;;;;5106997;28;20497;-53
2022/03/09 03:36:26;;;;;;;0.93;0.80;;;;;;;;;;5094995;28;20024;-53
2022/03/09 03:38:51;;;;;;;1.15;0.73;;;;;;;;;;5096198;28;20432;-56
2022/03/09 03:41:16;;;;;;;0.90;0.65;;;;;;;;;;5106435;28;20102;-56
2022/03/09 03:43:42;;;;;;;0.68;0.60;;;;;;;;;;5113085;28;20042;-52
2022/03/09 03:46:07;;;;;;;1.33;1.00;;;;;;;;;;5095228;28;20097;-55
2022/03/09 03:48:32;;;;;;;0.90;0.70;;;;;;;;;;5106608;28;20065;-52
2022/03/09 03:50:57;;;;;;;1.23;0.68;;;;;;;;;;5108760;28;20041;-54
2022/03/09 03:53:23;;;;;;;1.02;0.60;;;;;;;;;;5094813;28;20093;-54
2022/03/09 03:55:48;;;;;;;0.93;0.57;;;;;;;;;;5110075;28;20071;-53
2022/03/09 03:58:13;;;;;;;1.00;0.70;;;;;;;;;;5105672;28;20103;-54
2022/03/09 04:00:38;;;;;;;1.52;1.15;;;;;;;;;;5102583;28;20028;-56
2022/03/09 04:03:04;;;;;;;1.40;0.90;;;;;;;;;;5103090;28;20047;-56
2022/03/09 04:05:29;;;;;;;1.67;0.65;;;;;;;;;;5103134;28;20056;-53
2022/03/09 04:07:54;;;;;;;1.75;0.73;;;;;;;;;;5098541;28;20016;-56
2022/03/09 04:10:19;;;;;;;2.35;0.90;;;;;;;;;;5112447;28;20034;-56
2022/03/09 04:12:45;;;;;;;1.40;1.17;;;;;;;;;;5101675;28;20027;-53
2022/03/09 04:15:10;;;;;;;1.70;1.05;;;;;;;;;;5096633;28;20065;-57
2022/03/09 04:17:45;;;;;;;1.58;1.42;;;;;;;;;;5097249;28;20024;-52
2022/03/09 04:20:10;;;;;;;;;;;;;;;;;;5104858;28;20031;-57
2022/03/09 04:22:35;;;;;;;1.63;0.73;;;;;;;;;;5099344;28;19930;-54
2022/03/09 04:25:01;;;;;;;1.05;0.75;;;;;;;;;;5110838;28;20274;-52
2022/03/09 04:27:26;;;;;;;1.27;0.70;;;;;;;;;;5108127;28;20024;-54
2022/03/09 04:29:51;;;;;;;1.07;1.00;;;;;;;;;;5104007;28;20035;-55
2022/03/09 04:32:16;;;;;;;1.58;0.80;;;;;;;;;;5095045;28;20273;-56
2022/03/09 04:34:41;;;;;;;0.98;0.82;;;;;;;;;;5112910;28;20110;-55
2022/03/09 04:37:07;;;;;;;1.75;0.80;;;;;;;;;;5096508;28;20476;-54
2022/03/09 04:39:32;;;;;;;0.93;0.63;;;;;;;;;;5098032;28;20038;-56
2022/03/09 04:41:57;;;;;;;1.20;1.02;;;;;;;;;;5113702;28;20560;-55
2022/03/09 04:44:22;;;;;;;1.48;1.00;;;;;;;;;;5111054;28;20490;-53
2022/03/09 04:46:47;;;;;;;0.88;0.70;;;;;;;;;;5100056;28;20062;-53
2022/03/09 04:49:13;;;;;;;1.20;1.10;;;;;;;;;;5093942;28;20027;-52
2022/03/09 04:51:38;;;;;;;1.80;1.25;;;;;;;;;;5109285;28;20027;-55
2022/03/09 04:54:03;;;;;;;2.47;1.58;;;;;;;;;;5109889;28;20114;-54
2022/03/09 04:56:28;;;;;;;1.35;1.23;;;;;;;;;;5108805;28;20438;-56
2022/03/09 04:58:54;;;;;;;1.60;1.35;;;;;;;;;;5105417;28;20031;-56
2022/03/09 05:01:19;;;;;;;1.42;0.93;;;;;;;;;;5102766;28;20040;-54
2022/03/09 05:03:44;;;;;;;1.48;0.93;;;;;;;;;;5101960;28;20028;-53
2022/03/09 05:06:09;;;;;;;1.30;1.05;;;;;;;;;;5096131;28;20125;-55
2022/03/09 05:08:34;;;;;;;1.35;1.20;;;;;;;;;;5114228;28;20024;-53
2022/03/09 05:11:00;;;;;;;1.77;0.93;;;;;;;;;;5100714;28;20031;-54
2022/03/09 05:13:25;;;;;;;2.85;1.08;;;;;;;;;;5114163;28;20034;-54
2022/03/09 05:15:50;;;;;;;1.77;1.30;;;;;;;;;;5103288;28;20047;-55
2022/03/09 05:18:15;;;;;;;0.80;0.80;;;;;;;;;;5075618;28;20032;-56
2022/03/09 05:20:40;;;;;;;0.90;0.88;;;;;;;;;;5096268;28;20026;-53
2022/03/09 05:23:05;;;;;;;2.63;1.15;;;;;;;;;;5096868;28;20028;-54
2022/03/09 05:25:31;;;;;;;0.95;0.70;;;;;;;;;;5104628;28;20031;-56
2022/03/09 05:27:56;;;;;;;1.23;0.90;;;;;;;;;;5102859;28;20019;-55
2022/03/09 05:30:21;;;;;;;2.75;1.63;;;;;;;;;;5109858;28;20016;-55
2022/03/09 05:32:46;;;;;;;1.75;0.80;;;;;;;;;;5099002;27;20074;-57
2022/03/09 05:35:12;;;;;;;1.25;0.70;;;;;;;;;;5101664;28;20032;-56
2022/03/09 05:37:41;;;;;;;1.15;0.80;;;;;;;;;;5104342;28;20023;-55
2022/03/09 05:40:08;;;;;;;2.00;1.02;;;;;;;;;;5099027;28;20479;-55
2022/03/09 05:42:33;;;;;;;1.45;1.00;;;;;;;;;;5098219;28;20376;-53
2022/03/09 05:44:58;;;;;;;1.08;0.73;;;;;;;;;;5105246;28;20039;-57
2022/03/09 05:47:24;;;;;;;1.40;1.27;;;;;;;;;;5100314;28;20020;-54
2022/03/09 05:49:49;;;;;;;2.17;0.82;;;;;;;;;;5111732;28;20055;-56
2022/03/09 05:52:14;;;;;;;4.13;1.05;;;;;;;;;;5112351;28;20110;-54
2022/03/09 05:54:39;;;;;;;3.30;0.90;;;;;;;;;;5103913;28;20024;-55
2022/03/09 05:57:05;;;;;;;1.27;1.00;;;;;;;;;;5093520;28;20047;-52
2022/03/09 05:59:30;;;;;;;1.88;1.60;;;;;;;;;;5100841;28;20491;-54
2022/03/09 06:01:55;;;;;;;2.13;1.25;;;;;;;;;;5106754;28;20420;-53
2022/03/09 06:04:20;;;;;;;2.25;1.23;;;;;;;;;;5102011;28;20444;-56
2022/03/09 06:06:46;;;;;;;1.95;1.10;;;;;;;;;;5106229;28;20047;-55
2022/03/09 06:09:11;;;;;;;1.98;1.02;;;;;;;;;;5110659;28;20383;-50
2022/03/09 06:11:36;;;;;;;2.10;1.08;;;;;;;;;;5112578;28;20050;-54
2022/03/09 06:14:01;;;;;;;2.53;1.45;;;;;;;;;;5096573;28;20031;-54
2022/03/09 06:16:26;;;;;;;3.28;1.85;;;;;;;;;;5108306;28;20514;-55
2022/03/09 06:18:51;;;;;;;2.92;1.25;;;;;;;;;;5101794;28;20027;-53
2022/03/09 06:21:17;;;;;;;1.30;0.98;;;;;;;;;;5103197;28;20054;-54
2022/03/09 06:23:42;;;;;;;4.22;1.38;;;;;;;;;;5098074;28;20523;-55
2022/03/09 06:26:07;;;;;;;1.70;0.90;;;;;;;;;;5109759;28;20034;-55
2022/03/09 06:28:33;;;;;;;2.33;0.68;;;;;;;;;;5100248;28;20028;-55
2022/03/09 06:30:58;;;;;;;4.63;1.13;;;;;;;;;;5103130;28;20038;-55
2022/03/09 06:33:23;;;;;;;2.00;1.30;;;;;;;;;;5102980;28;20030;-56
2022/03/09 06:35:49;;;;;;;3.20;2.22;;;;;;;;;;5111704;28;20026;-54
2022/03/09 06:38:14;;;;;;;3.38;1.83;;;;;;;;;;5099220;28;20451;-52
2022/03/09 06:40:39;;;;;;;5.00;2.03;;;;;;;;;;5108899;28;20023;-55
2022/03/09 06:43:04;;;;;;;3.55;1.67;;;;;;;;;;5109245;28;20052;-54
2022/03/09 06:45:30;;;;;;;4.05;2.30;;;;;;;;;;5094546;28;20111;-53
2022/03/09 06:47:55;;;;;;;3.47;2.03;;;;;;;;;;5111372;28;20485;-50
2022/03/09 06:50:20;;;;;;;3.40;2.00;;;;;;;;;;5104407;28;20024;-56
2022/03/09 06:52:45;;;;;;;3.42;1.85;;;;;;;;;;5097284;28;20022;-53
2022/03/09 06:55:12;;;;;;;2.55;2.13;;;;;;;;;;5108456;28;20031;-50
2022/03/09 06:57:37;;;;;;;2.80;2.38;;;;;;;;;;5106580;28;20036;-54
2022/03/09 07:00:04;;;;;;;4.63;2.30;;;;;;;;;;5113941;28;20027;-54
2022/03/09 07:02:29;;;;;;;3.47;2.10;;;;;;;;;;5109759;28;20019;-54
2022/03/09 07:04:54;;;;;;;4.15;2.33;;;;;;;;;;5112992;28;20032;-53
2022/03/09 07:07:19;;;;;;;2.20;1.75;;;;;;;;;;5105006;28;20020;-52
2022/03/09 07:09:45;;;;;;;3.75;1.85;;;;;;;;;;5115515;28;20080;-54
2022/03/09 07:12:10;;;;;;;2.92;1.90;;;;;;;;;;5105686;28;20480;-54
2022/03/09 07:14:35;;;;;;;3.15;2.03;;;;;;;;;;5099097;28;20384;-52
2022/03/09 07:17:01;;;;;;;1.85;1.50;;;;;;;;;;5099842;28;20119;-52
2022/03/09 07:19:26;;;;;;;2.15;1.63;;;;;;;;;;5107966;28;20094;-52
2022/03/09 07:21:53;;;;;;;2.92;1.70;;;;;;;;;;5104881;28;20024;-52
2022/03/09 07:24:18;;;;;;;3.38;2.20;;;;;;;;;;5102070;28;20015;-55
2022/03/09 07:26:43;;;;;;;2.92;1.95;;;;;;;;;;5114860;28;20028;-52
2022/03/09 07:29:11;;;;;;;3.20;1.85;;;;;;;;;;5112457;28;20015;-51
2022/03/09 07:31:36;;;;;;;2.97;1.67;;;;;;;;;;5111494;28;20070;-54
2022/03/09 07:34:02;;;;;;;2.85;2.00;;;;;;;;;;5113496;28;20064;-51
2022/03/09 07:36:27;;;;;;;2.45;1.65;;;;;;;;;;5114852;28;20019;-51
2022/03/09 07:38:52;;;;;;;2.67;1.85;;;;;;;;;;5115161;28;20031;-52
2022/03/09 07:41:17;;;;;;;2.83;1.95;;;;;;;;;;5112130;28;20138;-52
2022/03/09 07:43:42;;;;;;;2.58;2.00;;;;;;;;;;5114325;28;20472;-53
2022/03/09 07:46:09;;;;;;;3.65;2.10;;;;;;;;;;5101037;28;20118;-51
2022/03/09 07:48:34;;;;;;;4.95;1.75;;;;;;;;;;5098790;28;20108;-54
2022/03/09 07:50:59;;;;;;;2.95;1.80;;;;;;;;;;5113189;28;20055;-54
2022/03/09 07:53:24;;;;;;;3.15;2.20;;;;;;;;;;5110796;28;20012;-52
2022/03/09 07:55:50;;;;;;;2.30;1.70;;;;;;;;;;5097974;28;20134;-55
2022/03/09 07:58:15;;;;;;;5.28;1.63;;;;;;;;;;5109695;28;20031;-51
2022/03/09 08:00:40;;;;;;;3.80;1.83;;;;;;;;;;5098796;28;20035;-53
2022/03/09 08:03:05;;;;;;;3.22;1.65;;;;;;;;;;5095758;28;20039;-55
2022/03/09 08:05:31;;;;;;;3.53;1.50;;;;;;;;;;5101387;28;20027;-56
2022/03/09 08:07:56;;;;;;;2.85;1.67;;;;;;;;;;5094392;28;20024;-53
2022/03/09 08:10:21;;;;;;;2.90;1.40;;;;;;;;;;5094831;28;20012;-54
2022/03/09 08:12:47;;;;;;;2.80;1.90;;;;;;;;;;5100252;28;20464;-55
2022/03/09 08:15:12;;;;;;;2.15;1.35;;;;;;;;;;5099407;28;20023;-54
2022/03/09 08:17:37;;;;;;;2.45;1.63;;;;;;;;;;5110651;28;20111;-55
2022/03/09 08:20:03;;;;;;;2.15;1.25;;;;;;;;;;5095472;28;20358;-53
2022/03/09 08:22:28;;;;;;;5.95;1.75;;;;;;;;;;5106962;28;20034;-52
2022/03/09 08:24:53;;;;;;;1.40;1.10;;;;;;;;;;5102717;28;20385;-53
2022/03/09 08:27:19;;;;;;;2.30;1.60;;;;;;;;;;5105308;28;20468;-54
2022/03/09 08:29:44;;;;;;;3.95;1.30;;;;;;;;;;5098705;28;20085;-53
2022/03/09 08:32:09;;;;;;;3.20;1.55;;;;;;;;;;5114166;28;20070;-55
2022/03/09 08:34:34;;;;;;;1.48;1.00;;;;;;;;;;5103108;28;20034;-54
2022/03/09 08:36:59;;;;;;;1.95;0.77;;;;;;;;;;5099822;28;20120;-55
2022/03/09 08:39:26;;;;;;;1.85;1.00;;;;;;;;;;5111215;28;20499;-54
2022/03/09 08:41:51;;;;;;;2.55;1.20;;;;;;;;;;5108578;28;20020;-56
2022/03/09 08:44:16;;;;;;;2.35;1.40;;;;;;;;;;5111906;28;20030;-56
2022/03/09 08:46:42;;;;;;;1.33;0.95;;;;;;;;;;5111772;28;20031;-53
2022/03/09 08:49:07;;;;;;;3.05;1.00;;;;;;;;;;5113810;28;20023;-56
2022/03/09 08:51:32;;;;;;;1.52;1.27;;;;;;;;;;5105317;28;20108;-51
2022/03/09 08:53:57;;;;;;;2.22;0.80;;;;;;;;;;5105756;28;20184;-54
2022/03/09 08:56:23;;;;;;;1.58;1.17;;;;;;;;;;5104460;28;20419;-54
2022/03/09 08:58:48;;;;;;;2.42;1.00;;;;;;;;;;5098704;28;20043;-50
2022/03/09 09:01:13;;;;;;;3.45;0.80;;;;;;;;;;5094106;28;20053;-55
2022/03/09 09:03:38;;;;;;;1.83;1.15;;;;;;;;;;5094797;28;20028;-54
2022/03/09 09:06:04;;;;;;;1.15;0.73;;;;;;;;;;5107424;28;20395;-52
2022/03/09 09:08:29;;;;;;;3.83;1.42;;;;;;;;;;5104814;28;20024;-55
2022/03/09 09:10:54;;;;;;;2.25;1.02;;;;;;;;;;5094242;28;20028;-55
2022/03/09 09:13:19;;;;;;;2.05;0.93;;;;;;;;;;5110243;28;20419;-55
2022/03/09 09:15:45;;;;;;;1.98;1.08;;;;;;;;;;5113631;28;20486;-56
2022/03/09 09:18:10;;;;;;;1.35;0.82;;;;;;;;;;5109511;28;20114;-53
2022/03/09 09:20:35;;;;;;;1.35;0.75;;;;;;;;;;5106279;28;20059;-53
2022/03/09 09:23:01;;;;;;;1.73;1.13;;;;;;;;;;5108331;28;20019;-53
2022/03/09 09:25:27;;;;;;;1.50;0.82;;;;;;;;;;5107568;28;20062;-53
2022/03/09 09:27:53;;;;;;;1.45;0.85;;;;;;;;;;5109123;28;20023;-55
2022/03/09 09:30:19;;;;;;;1.23;0.70;;;;;;;;;;5111849;28;20023;-53
2022/03/09 09:32:45;;;;;;;5.95;4.07;;;;;;;;;;5103398;28;20123;-63
2022/03/09 09:35:10;;;;;;;5.63;3.65;;;;;;;;;;5099145;28;20135;-70
2022/03/09 09:37:37;;;;;;;6.30;3.70;;;;;;;;;;5110965;28;20031;-70
2022/03/09 09:40:02;;;;;;;4.57;3.33;;;;;;;;;;5108044;28;20467;-70
2022/03/09 09:42:30;;;;;;;7.75;5.40;;;;;;;;;;5111128;28;20027;-70
2022/03/09 09:44:56;;;;;;;4.20;2.63;;;;;;;;;;5102132;28;20050;-70
2022/03/09 09:47:23;;;;;;;5.35;2.80;;;;;;;;;;5112567;28;20435;-69
2022/03/09 09:49:49;;;;;;;4.18;2.78;;;;;;;;;;5099114;28;20403;-70
2022/03/09 09:52:15;;;;;;;4.45;2.63;;;;;;;;;;5106632;28;20056;-69
2022/03/09 09:54:40;;;;;;;6.47;2.58;;;;;;;;;;5106770;28;20051;-71
2022/03/09 09:57:05;;;;;;;4.07;2.50;;;;;;;;;;5111992;28;20473;-69
2022/03/09 09:59:31;;;;;;;6.25;3.03;;;;;;;;;;5107888;28;20468;-70
2022/03/09 10:01:58;;;;;;;4.88;2.03;;;;;;;;;;5101891;28;20120;-71
2022/03/09 10:04:23;;;;;;;5.15;2.97;;;;;;;;;;5102927;28;20043;-70
2022/03/09 10:06:49;;;;;;;5.85;2.45;;;;;;;;;;5103487;28;20028;-69
2022/03/09 10:09:14;;;;;;;4.50;2.67;;;;;;;;;;5103821;28;20024;-69
2022/03/09 10:11:52;;;;;;;5.90;2.33;;;;;;;;;;5098368;28;20556;-70
2022/03/09 10:14:37;;;;;;;8.07;1.58;;;;;;;;;;5096641;28;20123;-70
2022/03/09 10:17:04;;;;;;;3.40;1.75;;;;;;;;;;5112207;28;20027;-69
2022/03/09 10:19:36;;;;;;;4.03;2.00;;;;;;;;;;5098503;28;20055;-70
2022/03/09 10:22:20;;;;;;;4.35;1.77;;;;;;;;;;5111488;28;20020;-70
2022/03/09 10:24:46;;;;;;;3.92;1.80;;;;;;;;;;5107373;28;20023;-70
2022/03/09 10:27:11;;;;;;;3.13;1.98;;;;;;;;;;5102826;28;20020;-70
2022/03/09 10:29:36;;;;;;;3.83;1.73;;;;;;;;;;5110360;28;20055;-70
2022/03/09 10:32:02;;;;;;;3.67;1.65;;;;;;;;;;5099882;28;20024;-70
2022/03/09 10:34:29;;;;;;;2.40;1.60;;;;;;;;;;5108689;28;20499;-68
2022/03/09 10:37:01;;;;;;;3.88;1.70;;;;;;;;;;5111716;28;20026;-70
2022/03/09 10:39:32;;;;;;;1.90;1.13;;;;;;;;;;5112039;28;20568;-70
2022/03/09 10:42:01;;;;;;;2.00;1.20;;;;;;;;;;5110301;28;20074;-68
2022/03/09 10:44:40;;;;;;;2.63;1.70;;;;;;;;;;5103369;28;20071;-69
2022/03/09 10:47:06;;;;;;;2.58;1.88;;;;;;;;;;5112175;28;20487;-71
2022/03/09 10:49:31;;;;;;;3.22;1.88;;;;;;;;;;5104489;28;20016;-69
2022/03/09 10:51:56;;;;;;;3.22;2.00;;;;;;;;;;5096837;28;20012;-69
2022/03/09 10:54:22;;;;;;;3.70;2.33;;;;;;;;;;5106436;28;20030;-70
2022/03/09 10:56:48;;;;;;;3.92;2.10;;;;;;;;;;5103812;28;20126;-66
2022/03/09 10:59:20;;;;;;;2.78;1.85;;;;;;;;;;5111826;28;20110;-70
2022/03/09 11:02:02;;;;;;;4.07;2.10;;;;;;;;;;5109100;28;20110;-69
2022/03/09 11:04:27;;;;;;;2.28;1.75;;;;;;;;;;5110075;28;20503;-69
2022/03/09 11:06:55;;;;;;;2.25;1.83;;;;;;;;;;5097084;28;20013;-69
2022/03/09 11:09:20;;;;;;;2.42;2.22;;;;;;;;;;5091633;28;20028;-69
2022/03/09 11:11:46;;;;;;;2.50;2.15;;;;;;;;;;5100078;28;20352;-69
2022/03/09 11:14:13;;;;;;;3.95;2.10;;;;;;;;;;5097959;28;20160;-69
2022/03/09 11:16:38;;;;;;;3.55;2.20;;;;;;;;;;5107672;28;20034;-69
2022/03/09 11:19:04;;;;;;;3.17;2.20;;;;;;;;;;5103118;28;20016;-69
2022/03/09 11:21:29;;;;;;;3.80;2.42;;;;;;;;;;5091189;28;20116;-69
2022/03/09 11:23:54;;;;;;;3.05;2.22;;;;;;;;;;5101791;28;20480;-68
2022/03/09 11:26:23;;;;;;;3.95;2.70;;;;;;;;;;5109624;28;20012;-69
2022/03/09 11:28:58;;;;;;;4.18;2.08;;;;;;;;;;5106495;28;20099;-69
2022/03/09 11:31:23;;;;;;;3.65;2.40;;;;;;;;;;5099315;28;20028;-69
2022/03/09 11:33:50;;;;;;;4.13;2.05;;;;;;;;;;5111194;28;20546;-69
2022/03/09 11:36:21;;;;;;;4.50;2.42;;;;;;;;;;5110870;28;20046;-69
2022/03/09 11:38:48;;;;;;;2.65;2.40;;;;;;;;;;5113446;28;20008;-69
2022/03/09 11:41:16;;;;;;;3.25;2.35;;;;;;;;;;5111481;28;20480;-69
2022/03/09 11:43:41;;;;;;;4.38;2.50;;;;;;;;;;5114876;28;20024;-69
2022/03/09 11:46:07;;;;;;;2.33;2.13;;;;;;;;;;5107885;28;20563;-69
2022/03/09 11:49:07;;;;;;;2.25;2.05;;;;;;;;;;5112760;28;20106;-69
2022/03/09 11:51:33;;;;;;;3.08;2.53;;;;;;;;;;5025848;28;20021;-70
2022/03/09 11:53:59;;;;;;;3.72;2.55;;;;;;;;;;5012217;28;20508;-70
2022/03/09 11:56:27;;;;;;;4.25;2.40;;;;;;;;;;5028986;28;20473;-70
2022/03/09 11:59:11;;;;;;;2.25;2.05;;;;;;;;;;5023983;28;20034;-70
2022/03/09 12:01:55;;;;;;;3.22;2.33;;;;;;;;;;5015250;28;20034;-70
2022/03/09 12:04:38;;;;;;;2.58;2.38;;;;;;;;;;5015213;28;20556;-70
2022/03/09 12:07:04;;;;;;;4.93;2.83;;;;;;;;;;5022286;28;20033;-70
2022/03/09 12:09:48;;;;;;;3.05;2.75;;;;;;;;;;5017886;28;20186;-69
2022/03/09 12:12:13;;;;;;;6.03;2.90;;;;;;;;;;5016006;28;20038;-70
2022/03/09 12:14:57;;;;;;;2.92;2.70;;;;;;;;;;5025243;28;20048;-69
2022/03/09 12:17:26;;;;;;;3.95;2.40;;;;;;;;;;5030000;28;20033;-69
2022/03/09 12:20:10;;;;;;;2.95;2.60;;;;;;;;;;5017367;28;20037;-69
2022/03/09 12:23:00;;;;;;;2.70;2.40;;;;;;;;;;5023519;28;20026;-70
2022/03/09 12:25:36;;;;;;;4.30;2.88;;;;;;;;;;5058748;28;20119;-71
2022/03/09 12:28:20;;;;;;;4.63;2.40;;;;;;;;;;5109715;28;20088;-69
2022/03/09 12:30:47;;;;;;;4.00;2.42;;;;;;;;;;5109377;28;20050;-69
2022/03/09 12:33:20;;;;;;;4.47;2.38;;;;;;;;;;5095292;28;20073;-70
2022/03/09 12:35:45;;;;;;;3.58;2.60;;;;;;;;;;5114546;28;20024;-68
2022/03/09 12:38:11;;;;;;;4.13;2.47;;;;;;;;;;5110748;28;20091;-69
2022/03/09 12:40:36;;;;;;;2.53;2.22;;;;;;;;;;5107481;28;20645;-68
2022/03/09 12:43:01;;;;;;;4.23;2.27;;;;;;;;;;5102593;28;20019;-68
2022/03/09 12:45:26;;;;;;;3.10;2.42;;;;;;;;;;5113058;28;20273;-70
2022/03/09 12:47:54;;;;;;;3.83;2.50;;;;;;;;;;5109110;28;20027;-68
2022/03/09 12:50:22;;;;;;;2.63;2.40;;;;;;;;;;5111599;28;20270;-70
2022/03/09 12:52:48;;;;;;;3.13;2.20;;;;;;;;;;5108145;28;20023;-69
2022/03/09 12:55:16;;;;;;;4.97;2.53;;;;;;;;;;5094964;28;20020;-69
2022/03/09 12:57:41;;;;;;;3.65;2.25;;;;;;;;;;5100880;28;20028;-70
2022/03/09 13:00:09;;;;;;;5.25;3.50;;;;;;;;;;5101570;28;20019;-69
2022/03/09 13:02:46;;;;;;;7.38;2.88;;;;;;;;;;5103184;28;20048;-70
2022/03/09 13:05:13;;;;;;;2.53;2.30;;;;;;;;;;5105473;28;20487;-69
2022/03/09 13:07:39;;;;;;;3.28;2.45;;;;;;;;;;5093650;28;20492;-69
2022/03/09 13:10:13;;;;;;;3.70;1.80;;;;;;;;;;5097721;28;20019;-70
2022/03/09 13:12:53;;;;;;;2.92;2.33;;;;;;;;;;5099292;28;20043;-67
2022/03/09 13:15:19;;;;;;;3.17;2.10;;;;;;;;;;5096885;28;20227;-69
2022/03/09 13:17:48;;;;;;;4.63;2.38;;;;;;;;;;5097258;28;20031;-68
2022/03/09 13:20:14;;;;;;;4.50;2.67;;;;;;;;;;5097270;28;20020;-68
2022/03/09 13:22:40;;;;;;;2.85;2.45;;;;;;;;;;5096127;28;20032;-68
2022/03/09 13:25:06;;;;;;;3.63;2.42;;;;;;;;;;5101104;28;20107;-68
2022/03/09 13:27:31;;;;;;;2.95;2.08;;;;;;;;;;5111590;28;20019;-69
2022/03/09 13:29:57;;;;;;;2.63;2.00;;;;;;;;;;5106024;28;20044;-69
2022/03/09 13:32:29;;;;;;;3.03;2.00;;;;;;;;;;5093582;28;20334;-68
2022/03/09 13:34:56;;;;;;;2.42;2.22;;;;;;;;;;5111729;28;20015;-69
2022/03/09 13:37:30;;;;;;;4.18;2.22;;;;;;;;;;5111400;28;20027;-69
2022/03/09 13:39:56;;;;;;;2.55;2.10;;;;;;;;;;5099263;28;20016;-69
2022/03/09 13:42:26;;;;;;;3.00;2.10;;;;;;;;;;5108422;28;20547;-69
2022/03/09 13:45:07;;;;;;;3.63;2.20;;;;;;;;;;5095062;28;20111;-69
2022/03/09 13:47:44;;;;;;;2.40;2.15;;;;;;;;;;5096999;28;20081;-68
2022/03/09 13:50:15;;;;;;;2.72;2.13;;;;;;;;;;5106347;28;20059;-69
2022/03/09 13:52:41;;;;;;;3.38;1.90;;;;;;;;;;5106980;28;20020;-68
2022/03/09 13:55:06;;;;;;;4.37;2.30;;;;;;;;;;5103540;28;20034;-69
2022/03/09 13:57:38;;;;;;;3.40;2.10;;;;;;;;;;5105107;28;20282;-68
2022/03/09 14:00:22;;;;;;;2.78;1.65;;;;;;;;;;5109170;28;20480;-68
2022/03/09 14:02:47;;;;;;;2.40;1.75;;;;;;;;;;5095023;28;20027;-69
2022/03/09 14:05:26;;;;;;;4.82;2.28;;;;;;;;;;5107520;28;20396;-68
2022/03/09 14:07:51;;;;;;;3.03;2.20;;;;;;;;;;5108959;28;20020;-69
2022/03/09 14:10:21;;;;;;;4.53;3.97;;;;;;;;;;5105144;28;20030;-69
2022/03/09 14:12:46;;;;;;;3.88;2.30;;;;;;;;;;5110770;28;20081;-69
2022/03/09 14:15:13;;;;;;;3.10;1.63;;;;;;;;;;5105463;28;20039;-69
2022/03/09 14:17:39;;;;;;;2.92;2.25;;;;;;;;;;5110011;28;20027;-70
2022/03/09 14:20:05;;;;;;;2.15;1.80;;;;;;;;;;5105657;28;20016;-70
2022/03/09 14:22:39;;;;;;;2.00;1.50;;;;;;;;;;5096713;28;20380;-68
2022/03/09 14:25:05;;;;;;;4.20;1.83;;;;;;;;;;5101878;28;20026;-69
2022/03/09 14:27:30;;;;;;;3.67;1.85;;;;;;;;;;5103240;28;20027;-69
2022/03/09 14:29:55;;;;;;;4.35;2.15;;;;;;;;;;5101368;28;20034;-70
2022/03/09 14:32:21;;;;;;;1.40;1.30;;;;;;;;;;5110052;28;20109;-70
2022/03/09 14:34:46;;;;;;;3.78;1.60;;;;;;;;;;5100660;28;20451;-70
2022/03/09 14:37:12;;;;;;;4.68;1.70;;;;;;;;;;5100600;28;20024;-69
2022/03/09 14:39:39;;;;;;;1.42;1.33;;;;;;;;;;5096600;28;20531;-68
2022/03/09 14:42:05;;;;;;;3.17;1.58;;;;;;;;;;5105434;28;20487;-69